sensor_id;sensor_type;location;lat;lon;timestamp;temperature;humidity
25640;DHT22;13497;48.322;16.204;2023-03-01T00:00:12;-0.90;99.90
25640;DHT22;13497;48.322;16.204;2023-03-01T00:02:38;-1.00;99.90
25640;DHT22;13497;48.322;16.204;2023-03-01T00:05:04;-1.00;99.90
25640;DHT22;13497;48.322;16.204;2023-03-01T00:07:29;-1.00;99.90
25640;DHT22;13497;48.322;16.204;2023-03-01T00:09:55;-0.90;99.90
25640;DHT22;13497;48.322;16.204;2023-03-01T00:12:20;-0.90;99.90
25640;DHT22;13497;48.322;16.204;2023-03-01T00:14:46;-0.80;99.90
25640;DHT22;13497;48.322;16.204;2023-03-01T00:17:11;-0.80;99.90
25640;DHT22;13497;48.322;16.204;2023-03-01T00:19:37;-0.80;99.90
25640;DHT22;13497;48.322;16.204;2023-03-01T00:22:02;-0.80;99.90
25640;DHT22;13497;48.322;16.204;2023-03-01T00:24:28;-0.80;99.90
25640;DHT22;13497;48.322;16.204;2023-03-01T00:26:54;-0.80;99.90
25640;DHT22;13497;48.322;16.204;2023-03-01T00:29:23;-0.80;99.90
25640;DHT22;13497;48.322;16.204;2023-03-01T00:31:49;-0.80;99.90
25640;DHT22;13497;48.322;16.204;2023-03-01T00:34:14;-0.80;99.90
25640;DHT22;13497;48.322;16.204;2023-03-01T00:36:40;-0.80;99.90
25640;DHT22;13497;48.322;16.204;2023-03-01T00:39:07;-0.80;99.90
25640;DHT22;13497;48.322;16.204;2023-03-01T00:41:33;-0.80;99.90
25640;DHT22;13497;48.322;16.204;2023-03-01T00:43:59;-0.80;99.90
25640;DHT22;13497;48.322;16.204;2023-03-01T00:46:25;-0.80;99.90
25640;DHT22;13497;48.322;16.204;2023-03-01T00:48:51;-0.80;99.90
25640;DHT22;13497;48.322;16.204;2023-03-01T00:51:21;-0.80;99.90
25640;DHT22;13497;48.322;16.204;2023-03-01T00:53:50;-0.80;99.90
25640;DHT22;13497;48.322;16.204;2023-03-01T00:56:16;-0.80;99.90
25640;DHT22;13497;48.322;16.204;2023-03-01T00:58:42;-0.80;99.90
25640;DHT22;13497;48.322;16.204;2023-03-01T01:01:11;-0.80;99.90
25640;DHT22;13497;48.322;16.204;2023-03-01T01:03:54;-0.70;99.90
25640;DHT22;13497;48.322;16.204;2023-03-01T01:06:22;-0.70;99.90
25640;DHT22;13497;48.322;16.204;2023-03-01T01:08:48;-0.70;99.90
25640;DHT22;13497;48.322;16.204;2023-03-01T01:11:14;-0.80;99.90
25640;DHT22;13497;48.322;16.204;2023-03-01T01:13:40;-0.90;99.90
25640;DHT22;13497;48.322;16.204;2023-03-01T01:16:06;-0.90;99.90
25640;DHT22;13497;48.322;16.204;2023-03-01T01:18:32;-1.00;99.90
25640;DHT22;13497;48.322;16.204;2023-03-01T01:21:02;-1.10;99.90
25640;DHT22;13497;48.322;16.204;2023-03-01T01:23:28;-1.00;99.90
25640;DHT22;13497;48.322;16.204;2023-03-01T01:25:54;-1.10;99.90
25640;DHT22;13497;48.322;16.204;2023-03-01T01:28:19;-1.10;99.90
25640;DHT22;13497;48.322;16.204;2023-03-01T01:30:45;-1.10;99.90
25640;DHT22;13497;48.322;16.204;2023-03-01T01:33:10;-1.10;99.90
25640;DHT22;13497;48.322;16.204;2023-03-01T01:35:36;-1.10;99.90
25640;DHT22;13497;48.322;16.204;2023-03-01T01:38:01;-1.10;99.90
25640;DHT22;13497;48.322;16.204;2023-03-01T01:40:27;-1.10;99.90
25640;DHT22;13497;48.322;16.204;2023-03-01T01:42:52;-1.00;99.90
25640;DHT22;13497;48.322;16.204;2023-03-01T01:45:26;-1.00;99.90
25640;DHT22;13497;48.322;16.204;2023-03-01T01:47:52;-1.10;99.90
25640;DHT22;13497;48.322;16.204;2023-03-01T01:50:18;-1.10;99.90
25640;DHT22;13497;48.322;16.204;2023-03-01T01:52:43;-1.20;99.90
25640;DHT22;13497;48.322;16.204;2023-03-01T01:55:14;-1.10;99.90
25640;DHT22;13497;48.322;16.204;2023-03-01T01:57:45;-1.00;99.90
25640;DHT22;13497;48.322;16.204;2023-03-01T02:00:18;-1.00;99.90
25640;DHT22;13497;48.322;16.204;2023-03-01T02:02:45;-1.00;99.90
25640;DHT22;13497;48.322;16.204;2023-03-01T02:05:15;-1.20;99.90
25640;DHT22;13497;48.322;16.204;2023-03-01T02:07:42;-1.20;99.90
25640;DHT22;13497;48.322;16.204;2023-03-01T02:10:08;-1.20;99.90
25640;DHT22;13497;48.322;16.204;2023-03-01T02:12:34;-1.20;99.90
25640;DHT22;13497;48.322;16.204;2023-03-01T02:15:01;-1.20;99.90
25640;DHT22;13497;48.322;16.204;2023-03-01T02:17:26;-1.20;99.90
25640;DHT22;13497;48.322;16.204;2023-03-01T02:22:24;-1.00;99.90
25640;DHT22;13497;48.322;16.204;2023-03-01T02:25:01;-1.00;99.90
25640;DHT22;13497;48.322;16.204;2023-03-01T02:27:32;-0.90;99.90
25640;DHT22;13497;48.322;16.204;2023-03-01T02:29:58;-0.80;99.90
25640;DHT22;13497;48.322;16.204;2023-03-01T02:32:24;-0.70;99.90
25640;DHT22;13497;48.322;16.204;2023-03-01T02:34:53;-0.60;99.90
25640;DHT22;13497;48.322;16.204;2023-03-01T02:37:19;-0.60;99.90
25640;DHT22;13497;48.322;16.204;2023-03-01T02:39:59;-0.50;99.90
25640;DHT22;13497;48.322;16.204;2023-03-01T02:42:31;-0.40;99.90
25640;DHT22;13497;48.322;16.204;2023-03-01T02:44:59;-0.30;99.90
25640;DHT22;13497;48.322;16.204;2023-03-01T02:47:24;-0.30;99.90
25640;DHT22;13497;48.322;16.204;2023-03-01T02:49:50;-0.30;99.90
25640;DHT22;13497;48.322;16.204;2023-03-01T02:52:23;-0.20;99.90
25640;DHT22;13497;48.322;16.204;2023-03-01T02:57:23;-0.10;99.90
25640;DHT22;13497;48.322;16.204;2023-03-01T02:59:49;-0.10;99.90
25640;DHT22;13497;48.322;16.204;2023-03-01T03:23:12;0.10;99.90
25640;DHT22;13497;48.322;16.204;2023-03-01T03:25:38;0.10;99.90
25640;DHT22;13497;48.322;16.204;2023-03-01T03:28:03;-0.10;99.90
25640;DHT22;13497;48.322;16.204;2023-03-01T03:30:35;-0.10;99.90
25640;DHT22;13497;48.322;16.204;2023-03-01T03:33:01;0.00;99.90
25640;DHT22;13497;48.322;16.204;2023-03-01T03:35:28;0.00;99.90
25640;DHT22;13497;48.322;16.204;2023-03-01T03:37:55;0.10;99.90
25640;DHT22;13497;48.322;16.204;2023-03-01T03:40:31;0.20;99.90
25640;DHT22;13497;48.322;16.204;2023-03-01T03:42:57;0.30;99.90
25640;DHT22;13497;48.322;16.204;2023-03-01T03:45:22;0.40;99.90
25640;DHT22;13497;48.322;16.204;2023-03-01T03:47:48;0.40;99.90
25640;DHT22;13497;48.322;16.204;2023-03-01T03:50:14;0.50;99.90
25640;DHT22;13497;48.322;16.204;2023-03-01T03:52:40;0.50;99.90
25640;DHT22;13497;48.322;16.204;2023-03-01T03:55:06;0.50;99.90
25640;DHT22;13497;48.322;16.204;2023-03-01T03:57:36;0.60;99.90
25640;DHT22;13497;48.322;16.204;2023-03-01T04:00:02;0.60;99.90
25640;DHT22;13497;48.322;16.204;2023-03-01T04:02:30;0.50;99.90
25640;DHT22;13497;48.322;16.204;2023-03-01T04:04:55;0.50;99.90
25640;DHT22;13497;48.322;16.204;2023-03-01T04:07:21;0.40;99.90
25640;DHT22;13497;48.322;16.204;2023-03-01T04:09:46;0.50;99.90
25640;DHT22;13497;48.322;16.204;2023-03-01T04:12:12;0.50;99.90
25640;DHT22;13497;48.322;16.204;2023-03-01T04:14:37;0.60;99.90
25640;DHT22;13497;48.322;16.204;2023-03-01T04:17:03;0.60;99.90
25640;DHT22;13497;48.322;16.204;2023-03-01T04:19:31;0.50;99.90
25640;DHT22;13497;48.322;16.204;2023-03-01T04:22:03;0.60;99.90
25640;DHT22;13497;48.322;16.204;2023-03-01T04:24:34;0.50;99.90
25640;DHT22;13497;48.322;16.204;2023-03-01T04:27:00;0.50;99.90
25640;DHT22;13497;48.322;16.204;2023-03-01T04:29:25;0.60;99.90
25640;DHT22;13497;48.322;16.204;2023-03-01T04:31:51;0.50;99.90
25640;DHT22;13497;48.322;16.204;2023-03-01T04:34:16;0.60;99.90
25640;DHT22;13497;48.322;16.204;2023-03-01T04:36:42;0.60;99.90
25640;DHT22;13497;48.322;16.204;2023-03-01T04:39:08;0.70;99.90
25640;DHT22;13497;48.322;16.204;2023-03-01T04:41:38;0.60;99.90
25640;DHT22;13497;48.322;16.204;2023-03-01T04:44:08;0.70;99.90
25640;DHT22;13497;48.322;16.204;2023-03-01T04:46:34;0.70;99.90
25640;DHT22;13497;48.322;16.204;2023-03-01T04:49:00;0.70;99.90
25640;DHT22;13497;48.322;16.204;2023-03-01T04:51:26;0.70;99.90
25640;DHT22;13497;48.322;16.204;2023-03-01T04:53:51;0.80;99.90
25640;DHT22;13497;48.322;16.204;2023-03-01T04:56:17;0.80;99.90
25640;DHT22;13497;48.322;16.204;2023-03-01T04:58:43;0.90;99.90
25640;DHT22;13497;48.322;16.204;2023-03-01T05:01:10;1.00;99.90
25640;DHT22;13497;48.322;16.204;2023-03-01T05:03:40;1.00;99.90
25640;DHT22;13497;48.322;16.204;2023-03-01T05:06:06;1.00;99.90
25640;DHT22;13497;48.322;16.204;2023-03-01T05:08:32;1.10;99.90
25640;DHT22;13497;48.322;16.204;2023-03-01T05:10:59;1.00;99.90
25640;DHT22;13497;48.322;16.204;2023-03-01T05:13:25;0.90;99.90
25640;DHT22;13497;48.322;16.204;2023-03-01T05:15:58;0.90;99.90
25640;DHT22;13497;48.322;16.204;2023-03-01T05:18:24;1.00;99.90
25640;DHT22;13497;48.322;16.204;2023-03-01T05:21:03;1.00;99.90
25640;DHT22;13497;48.322;16.204;2023-03-01T05:23:29;1.00;99.90
25640;DHT22;13497;48.322;16.204;2023-03-01T05:25:57;1.00;99.90
25640;DHT22;13497;48.322;16.204;2023-03-01T05:28:23;1.00;99.90
25640;DHT22;13497;48.322;16.204;2023-03-01T05:30:48;1.10;99.90
25640;DHT22;13497;48.322;16.204;2023-03-01T05:33:16;1.10;99.90
25640;DHT22;13497;48.322;16.204;2023-03-01T05:35:43;1.10;99.90
25640;DHT22;13497;48.322;16.204;2023-03-01T05:38:09;1.10;99.90
25640;DHT22;13497;48.322;16.204;2023-03-01T05:40:38;1.10;99.90
25640;DHT22;13497;48.322;16.204;2023-03-01T05:43:04;1.00;99.90
25640;DHT22;13497;48.322;16.204;2023-03-01T05:45:30;1.00;99.90
25640;DHT22;13497;48.322;16.204;2023-03-01T05:47:57;1.00;99.90
25640;DHT22;13497;48.322;16.204;2023-03-01T05:50:24;1.10;99.90
25640;DHT22;13497;48.322;16.204;2023-03-01T05:52:54;1.20;99.90
25640;DHT22;13497;48.322;16.204;2023-03-01T05:55:21;1.20;99.90
25640;DHT22;13497;48.322;16.204;2023-03-01T05:57:47;1.20;99.90
25640;DHT22;13497;48.322;16.204;2023-03-01T06:00:13;1.20;99.90
25640;DHT22;13497;48.322;16.204;2023-03-01T06:02:39;1.20;99.90
25640;DHT22;13497;48.322;16.204;2023-03-01T06:05:06;1.20;99.90
25640;DHT22;13497;48.322;16.204;2023-03-01T06:07:32;1.20;99.90
25640;DHT22;13497;48.322;16.204;2023-03-01T06:09:57;1.30;99.90
25640;DHT22;13497;48.322;16.204;2023-03-01T06:12:23;1.30;99.90
25640;DHT22;13497;48.322;16.204;2023-03-01T06:14:48;1.30;99.90
25640;DHT22;13497;48.322;16.204;2023-03-01T06:17:14;1.40;99.90
25640;DHT22;13497;48.322;16.204;2023-03-01T06:19:39;1.50;99.90
25640;DHT22;13497;48.322;16.204;2023-03-01T06:22:05;1.50;99.90
25640;DHT22;13497;48.322;16.204;2023-03-01T06:24:30;1.60;99.90
25640;DHT22;13497;48.322;16.204;2023-03-01T06:26:56;1.60;99.90
25640;DHT22;13497;48.322;16.204;2023-03-01T06:29:21;1.60;99.90
25640;DHT22;13497;48.322;16.204;2023-03-01T06:31:48;1.70;99.90
25640;DHT22;13497;48.322;16.204;2023-03-01T06:34:14;1.80;99.90
25640;DHT22;13497;48.322;16.204;2023-03-01T06:36:39;1.80;99.90
25640;DHT22;13497;48.322;16.204;2023-03-01T06:39:05;1.90;99.90
25640;DHT22;13497;48.322;16.204;2023-03-01T06:41:31;2.00;99.90
25640;DHT22;13497;48.322;16.204;2023-03-01T06:43:58;1.90;99.90
25640;DHT22;13497;48.322;16.204;2023-03-01T06:46:24;2.00;99.90
25640;DHT22;13497;48.322;16.204;2023-03-01T06:48:49;2.00;99.90
25640;DHT22;13497;48.322;16.204;2023-03-01T06:51:15;2.10;99.90
25640;DHT22;13497;48.322;16.204;2023-03-01T06:53:40;2.10;99.90
25640;DHT22;13497;48.322;16.204;2023-03-01T06:56:06;2.10;99.90
25640;DHT22;13497;48.322;16.204;2023-03-01T06:58:31;2.20;99.90
25640;DHT22;13497;48.322;16.204;2023-03-01T07:00:57;2.20;99.90
25640;DHT22;13497;48.322;16.204;2023-03-01T07:03:22;2.30;99.90
25640;DHT22;13497;48.322;16.204;2023-03-01T07:05:49;2.40;99.90
25640;DHT22;13497;48.322;16.204;2023-03-01T07:08:17;2.40;99.90
25640;DHT22;13497;48.322;16.204;2023-03-01T07:10:43;2.50;99.90
25640;DHT22;13497;48.322;16.204;2023-03-01T07:13:09;2.50;99.90
25640;DHT22;13497;48.322;16.204;2023-03-01T07:15:35;2.50;99.90
25640;DHT22;13497;48.322;16.204;2023-03-01T07:18:00;2.50;99.90
25640;DHT22;13497;48.322;16.204;2023-03-01T07:20:26;2.40;99.90
25640;DHT22;13497;48.322;16.204;2023-03-01T07:22:52;2.40;99.90
25640;DHT22;13497;48.322;16.204;2023-03-01T07:25:17;2.50;99.90
25640;DHT22;13497;48.322;16.204;2023-03-01T07:27:43;2.60;99.90
25640;DHT22;13497;48.322;16.204;2023-03-01T07:30:09;2.70;99.90
25640;DHT22;13497;48.322;16.204;2023-03-01T07:32:34;2.70;99.90
25640;DHT22;13497;48.322;16.204;2023-03-01T07:35:00;2.80;99.90
25640;DHT22;13497;48.322;16.204;2023-03-01T07:37:26;2.80;99.90
25640;DHT22;13497;48.322;16.204;2023-03-01T07:39:51;2.80;99.90
25640;DHT22;13497;48.322;16.204;2023-03-01T07:42:17;2.90;99.90
25640;DHT22;13497;48.322;16.204;2023-03-01T07:44:42;2.90;99.90
25640;DHT22;13497;48.322;16.204;2023-03-01T07:47:08;3.00;99.90
25640;DHT22;13497;48.322;16.204;2023-03-01T07:49:34;3.10;99.90
25640;DHT22;13497;48.322;16.204;2023-03-01T07:51:59;3.20;99.90
25640;DHT22;13497;48.322;16.204;2023-03-01T07:54:25;3.30;99.90
25640;DHT22;13497;48.322;16.204;2023-03-01T07:56:51;3.30;99.90
25640;DHT22;13497;48.322;16.204;2023-03-01T07:59:17;3.00;99.90
25640;DHT22;13497;48.322;16.204;2023-03-01T08:01:42;3.20;99.90
25640;DHT22;13497;48.322;16.204;2023-03-01T08:04:08;3.40;99.90
25640;DHT22;13497;48.322;16.204;2023-03-01T08:06:34;3.40;99.90
25640;DHT22;13497;48.322;16.204;2023-03-01T08:09:00;3.40;99.90
25640;DHT22;13497;48.322;16.204;2023-03-01T08:11:25;3.40;99.90
25640;DHT22;13497;48.322;16.204;2023-03-01T08:13:53;3.60;99.90
25640;DHT22;13497;48.322;16.204;2023-03-01T08:16:18;3.90;99.90
25640;DHT22;13497;48.322;16.204;2023-03-01T08:18:44;4.10;99.90
25640;DHT22;13497;48.322;16.204;2023-03-01T08:21:11;4.20;99.90
25640;DHT22;13497;48.322;16.204;2023-03-01T08:23:37;4.10;99.90
25640;DHT22;13497;48.322;16.204;2023-03-01T08:26:20;4.00;99.90
25640;DHT22;13497;48.322;16.204;2023-03-01T08:28:46;4.00;99.90
25640;DHT22;13497;48.322;16.204;2023-03-01T08:31:16;4.10;99.90
25640;DHT22;13497;48.322;16.204;2023-03-01T08:33:42;4.20;99.90
25640;DHT22;13497;48.322;16.204;2023-03-01T08:36:08;4.30;99.90
25640;DHT22;13497;48.322;16.204;2023-03-01T08:38:34;4.20;99.90
25640;DHT22;13497;48.322;16.204;2023-03-01T08:41:02;4.50;99.90
25640;DHT22;13497;48.322;16.204;2023-03-01T08:43:28;4.90;99.90
25640;DHT22;13497;48.322;16.204;2023-03-01T08:45:54;5.30;99.90
25640;DHT22;13497;48.322;16.204;2023-03-01T08:48:20;5.40;99.90
25640;DHT22;13497;48.322;16.204;2023-03-01T08:50:45;5.40;99.90
25640;DHT22;13497;48.322;16.204;2023-03-01T08:53:11;5.50;99.90
25640;DHT22;13497;48.322;16.204;2023-03-01T08:55:36;5.70;99.90
25640;DHT22;13497;48.322;16.204;2023-03-01T08:58:02;5.60;99.90
25640;DHT22;13497;48.322;16.204;2023-03-01T09:00:27;5.40;99.90
25640;DHT22;13497;48.322;16.204;2023-03-01T09:02:53;5.40;99.90
25640;DHT22;13497;48.322;16.204;2023-03-01T09:05:18;5.30;99.90
25640;DHT22;13497;48.322;16.204;2023-03-01T09:07:44;5.10;99.90
25640;DHT22;13497;48.322;16.204;2023-03-01T09:10:09;4.80;99.90
25640;DHT22;13497;48.322;16.204;2023-03-01T09:12:35;5.00;99.90
25640;DHT22;13497;48.322;16.204;2023-03-01T09:15:01;5.30;99.90
25640;DHT22;13497;48.322;16.204;2023-03-01T09:17:26;5.70;99.90
25640;DHT22;13497;48.322;16.204;2023-03-01T09:19:52;5.80;99.90
25640;DHT22;13497;48.322;16.204;2023-03-01T09:22:17;5.90;99.90
25640;DHT22;13497;48.322;16.204;2023-03-01T09:24:43;5.90;99.90
25640;DHT22;13497;48.322;16.204;2023-03-01T09:27:08;5.80;99.90
25640;DHT22;13497;48.322;16.204;2023-03-01T09:29:35;5.80;99.90
25640;DHT22;13497;48.322;16.204;2023-03-01T09:32:01;5.60;99.90
25640;DHT22;13497;48.322;16.204;2023-03-01T09:34:27;5.50;99.90
25640;DHT22;13497;48.322;16.204;2023-03-01T09:36:52;5.50;99.90
25640;DHT22;13497;48.322;16.204;2023-03-01T09:39:18;5.40;99.90
25640;DHT22;13497;48.322;16.204;2023-03-01T09:42:02;5.40;99.90
25640;DHT22;13497;48.322;16.204;2023-03-01T09:46:34;5.40;99.90
25640;DHT22;13497;48.322;16.204;2023-03-01T09:49:05;5.60;99.90
25640;DHT22;13497;48.322;16.204;2023-03-01T09:51:35;5.70;99.90
25640;DHT22;13497;48.322;16.204;2023-03-01T09:54:03;5.80;99.70
25640;DHT22;13497;48.322;16.204;2023-03-01T09:56:39;6.00;99.70
25640;DHT22;13497;48.322;16.204;2023-03-01T10:04:40;6.90;97.50
25640;DHT22;13497;48.322;16.204;2023-03-01T10:09:38;6.70;97.30
25640;DHT22;13497;48.322;16.204;2023-03-01T10:12:18;6.70;97.60
25640;DHT22;13497;48.322;16.204;2023-03-01T10:15:09;6.90;97.00
25640;DHT22;13497;48.322;16.204;2023-03-01T10:22:44;6.80;96.10
25640;DHT22;13497;48.322;16.204;2023-03-01T10:25:17;6.80;96.30
25640;DHT22;13497;48.322;16.204;2023-03-01T10:27:54;6.60;96.50
25640;DHT22;13497;48.322;16.204;2023-03-01T10:30:21;6.70;96.40
25640;DHT22;13497;48.322;16.204;2023-03-01T10:32:51;6.90;96.10
25640;DHT22;13497;48.322;16.204;2023-03-01T10:35:26;6.70;95.90
25640;DHT22;13497;48.322;16.204;2023-03-01T10:38:19;6.70;96.20
25640;DHT22;13497;48.322;16.204;2023-03-01T10:41:04;7.00;96.00
25640;DHT22;13497;48.322;16.204;2023-03-01T10:51:31;7.30;95.00
25640;DHT22;13497;48.322;16.204;2023-03-01T10:53:57;7.20;95.30
25640;DHT22;13497;48.322;16.204;2023-03-01T10:56:23;7.40;95.10
25640;DHT22;13497;48.322;16.204;2023-03-01T10:59:02;7.40;94.70
25640;DHT22;13497;48.322;16.204;2023-03-01T11:01:34;7.50;94.50
25640;DHT22;13497;48.322;16.204;2023-03-01T11:06:36;7.90;94.00
25640;DHT22;13497;48.322;16.204;2023-03-01T11:09:19;8.10;93.90
25640;DHT22;13497;48.322;16.204;2023-03-01T11:11:51;8.20;93.60
25640;DHT22;13497;48.322;16.204;2023-03-01T11:14:20;8.10;93.90
25640;DHT22;13497;48.322;16.204;2023-03-01T11:16:58;8.00;93.80
25640;DHT22;13497;48.322;16.204;2023-03-01T11:19:24;8.00;93.70
25640;DHT22;13497;48.322;16.204;2023-03-01T11:24:19;7.30;94.30
25640;DHT22;13497;48.322;16.204;2023-03-01T11:26:51;7.30;94.50
25640;DHT22;13497;48.322;16.204;2023-03-01T11:29:50;7.50;94.40
25640;DHT22;13497;48.322;16.204;2023-03-01T11:32:19;7.50;94.40
25640;DHT22;13497;48.322;16.204;2023-03-01T11:35:28;7.80;93.90
25640;DHT22;13497;48.322;16.204;2023-03-01T11:37:40;7.90;93.80
25640;DHT22;13497;48.322;16.204;2023-03-01T11:40:29;8.20;93.40
25640;DHT22;13497;48.322;16.204;2023-03-01T11:43:13;7.80;93.20
25640;DHT22;13497;48.322;16.204;2023-03-01T11:45:50;7.50;93.80
25640;DHT22;13497;48.322;16.204;2023-03-01T11:48:45;7.40;94.20
25640;DHT22;13497;48.322;16.204;2023-03-01T11:51:34;7.70;93.80
25640;DHT22;13497;48.322;16.204;2023-03-01T11:56:40;7.60;93.80
25640;DHT22;13497;48.322;16.204;2023-03-01T12:05:20;7.70;93.70
25640;DHT22;13497;48.322;16.204;2023-03-01T12:10:27;7.80;93.90
25640;DHT22;13497;48.322;16.204;2023-03-01T12:15:51;7.90;93.50
25640;DHT22;13497;48.322;16.204;2023-03-01T12:19:05;7.90;93.80
25640;DHT22;13497;48.322;16.204;2023-03-01T12:22:05;8.00;93.60
25640;DHT22;13497;48.322;16.204;2023-03-01T12:27:38;7.60;94.10
25640;DHT22;13497;48.322;16.204;2023-03-01T12:33:31;7.90;94.20
25640;DHT22;13497;48.322;16.204;2023-03-01T12:36:19;8.00;93.90
25640;DHT22;13497;48.322;16.204;2023-03-01T12:39:37;8.20;94.00
25640;DHT22;13497;48.322;16.204;2023-03-01T12:50:24;8.60;92.80
25640;DHT22;13497;48.322;16.204;2023-03-01T12:52:57;8.70;92.90
25640;DHT22;13497;48.322;16.204;2023-03-01T12:55:30;8.50;92.90
25640;DHT22;13497;48.322;16.204;2023-03-01T13:06:14;8.60;93.30
25640;DHT22;13497;48.322;16.204;2023-03-01T13:08:58;8.70;93.10
25640;DHT22;13497;48.322;16.204;2023-03-01T13:11:27;8.80;93.20
25640;DHT22;13497;48.322;16.204;2023-03-01T13:16:49;8.80;92.80
25640;DHT22;13497;48.322;16.204;2023-03-01T13:19:24;8.80;93.20
25640;DHT22;13497;48.322;16.204;2023-03-01T13:21:52;8.90;93.30
25640;DHT22;13497;48.322;16.204;2023-03-01T13:25:00;8.60;93.20
25640;DHT22;13497;48.322;16.204;2023-03-01T13:27:26;8.40;93.70
25640;DHT22;13497;48.322;16.204;2023-03-01T13:29:59;8.20;94.00
25640;DHT22;13497;48.322;16.204;2023-03-01T13:32:36;8.30;94.40
25640;DHT22;13497;48.322;16.204;2023-03-01T13:37:40;8.60;94.00
25640;DHT22;13497;48.322;16.204;2023-03-01T13:42:56;8.20;94.30
25640;DHT22;13497;48.322;16.204;2023-03-01T13:45:42;8.00;94.70
25640;DHT22;13497;48.322;16.204;2023-03-01T13:48:18;8.00;94.80
25640;DHT22;13497;48.322;16.204;2023-03-01T13:51:09;8.10;94.80
25640;DHT22;13497;48.322;16.204;2023-03-01T13:53:38;8.00;95.00
25640;DHT22;13497;48.322;16.204;2023-03-01T13:56:19;8.00;95.30
25640;DHT22;13497;48.322;16.204;2023-03-01T14:01:26;8.00;95.40
25640;DHT22;13497;48.322;16.204;2023-03-01T14:03:52;7.80;95.50
25640;DHT22;13497;48.322;16.204;2023-03-01T14:06:27;7.80;95.60
25640;DHT22;13497;48.322;16.204;2023-03-01T14:09:16;7.80;95.80
25640;DHT22;13497;48.322;16.204;2023-03-01T14:15:15;7.80;96.30
25640;DHT22;13497;48.322;16.204;2023-03-01T14:17:52;7.90;95.80
25640;DHT22;13497;48.322;16.204;2023-03-01T14:20:24;7.90;95.90
25640;DHT22;13497;48.322;16.204;2023-03-01T14:22:54;7.90;96.00
25640;DHT22;13497;48.322;16.204;2023-03-01T14:25:32;8.10;95.90
25640;DHT22;13497;48.322;16.204;2023-03-01T14:28:20;8.10;95.90
25640;DHT22;13497;48.322;16.204;2023-03-01T14:30:45;8.00;95.80
25640;DHT22;13497;48.322;16.204;2023-03-01T14:33:30;7.90;96.20
25640;DHT22;13497;48.322;16.204;2023-03-01T14:41:03;8.10;96.20
25640;DHT22;13497;48.322;16.204;2023-03-01T14:43:30;8.10;96.20
25640;DHT22;13497;48.322;16.204;2023-03-01T14:45:57;8.10;96.20
25640;DHT22;13497;48.322;16.204;2023-03-01T14:48:23;8.10;96.30
25640;DHT22;13497;48.322;16.204;2023-03-01T14:50:49;8.20;96.30
25640;DHT22;13497;48.322;16.204;2023-03-01T14:53:23;8.20;95.80
25640;DHT22;13497;48.322;16.204;2023-03-01T14:55:55;8.20;95.90
25640;DHT22;13497;48.322;16.204;2023-03-01T14:58:23;8.10;95.80
25640;DHT22;13497;48.322;16.204;2023-03-01T15:00:58;8.10;95.90
25640;DHT22;13497;48.322;16.204;2023-03-01T15:03:30;8.00;95.70
25640;DHT22;13497;48.322;16.204;2023-03-01T15:05:56;7.80;95.90
25640;DHT22;13497;48.322;16.204;2023-03-01T15:08:26;7.80;96.20
25640;DHT22;13497;48.322;16.204;2023-03-01T15:11:05;7.80;96.20
25640;DHT22;13497;48.322;16.204;2023-03-01T15:13:35;7.80;96.00
25640;DHT22;13497;48.322;16.204;2023-03-01T15:18:36;7.80;96.20
25640;DHT22;13497;48.322;16.204;2023-03-01T15:21:07;7.80;96.00
25640;DHT22;13497;48.322;16.204;2023-03-01T15:23:34;7.80;96.00
25640;DHT22;13497;48.322;16.204;2023-03-01T15:26:00;7.90;96.10
25640;DHT22;13497;48.322;16.204;2023-03-01T15:28:34;7.80;96.30
25640;DHT22;13497;48.322;16.204;2023-03-01T15:31:23;7.60;96.50
25640;DHT22;13497;48.322;16.204;2023-03-01T15:33:49;7.50;96.60
25640;DHT22;13497;48.322;16.204;2023-03-01T15:38:57;7.50;96.50
25640;DHT22;13497;48.322;16.204;2023-03-01T15:41:24;7.50;96.60
25640;DHT22;13497;48.322;16.204;2023-03-01T15:43:51;7.50;96.60
25640;DHT22;13497;48.322;16.204;2023-03-01T15:48:57;7.40;96.70
25640;DHT22;13497;48.322;16.204;2023-03-01T15:51:35;7.40;96.80
25640;DHT22;13497;48.322;16.204;2023-03-01T15:54:07;7.50;96.70
25640;DHT22;13497;48.322;16.204;2023-03-01T15:56:37;7.70;96.60
25640;DHT22;13497;48.322;16.204;2023-03-01T15:59:03;7.80;96.60
25640;DHT22;13497;48.322;16.204;2023-03-01T16:01:29;7.70;96.60
25640;DHT22;13497;48.322;16.204;2023-03-01T16:03:55;7.70;96.60
25640;DHT22;13497;48.322;16.204;2023-03-01T16:06:21;7.60;96.70
25640;DHT22;13497;48.322;16.204;2023-03-01T16:08:47;7.60;96.80
25640;DHT22;13497;48.322;16.204;2023-03-01T16:11:18;7.60;97.00
25640;DHT22;13497;48.322;16.204;2023-03-01T16:13:44;7.60;96.90
25640;DHT22;13497;48.322;16.204;2023-03-01T16:16:10;7.70;97.00
25640;DHT22;13497;48.322;16.204;2023-03-01T16:18:45;7.70;96.80
25640;DHT22;13497;48.322;16.204;2023-03-01T16:21:22;7.70;96.80
25640;DHT22;13497;48.322;16.204;2023-03-01T16:23:49;7.60;96.80
25640;DHT22;13497;48.322;16.204;2023-03-01T16:26:15;7.60;96.70
25640;DHT22;13497;48.322;16.204;2023-03-01T16:28:42;7.50;97.10
25640;DHT22;13497;48.322;16.204;2023-03-01T16:31:08;7.50;97.30
25640;DHT22;13497;48.322;16.204;2023-03-01T16:33:34;7.40;97.50
25640;DHT22;13497;48.322;16.204;2023-03-01T16:36:11;7.30;97.60
25640;DHT22;13497;48.322;16.204;2023-03-01T16:38:37;7.30;97.90
25640;DHT22;13497;48.322;16.204;2023-03-01T16:41:05;7.20;98.20
25640;DHT22;13497;48.322;16.204;2023-03-01T16:43:31;7.00;98.40
25640;DHT22;13497;48.322;16.204;2023-03-01T16:45:57;6.90;98.70
25640;DHT22;13497;48.322;16.204;2023-03-01T16:48:24;6.80;99.00
25640;DHT22;13497;48.322;16.204;2023-03-01T16:51:00;6.70;99.10
25640;DHT22;13497;48.322;16.204;2023-03-01T16:53:26;6.60;99.10
25640;DHT22;13497;48.322;16.204;2023-03-01T16:55:54;6.50;99.40
25640;DHT22;13497;48.322;16.204;2023-03-01T16:58:20;6.50;99.40
25640;DHT22;13497;48.322;16.204;2023-03-01T17:00:46;6.40;99.50
25640;DHT22;13497;48.322;16.204;2023-03-01T17:03:11;6.30;99.80
25640;DHT22;13497;48.322;16.204;2023-03-01T17:05:40;6.10;99.90
25640;DHT22;13497;48.322;16.204;2023-03-01T17:08:06;6.10;99.90
25640;DHT22;13497;48.322;16.204;2023-03-01T17:10:33;5.90;99.90
25640;DHT22;13497;48.322;16.204;2023-03-01T17:12:58;5.80;99.90
25640;DHT22;13497;48.322;16.204;2023-03-01T17:15:24;5.70;99.90
25640;DHT22;13497;48.322;16.204;2023-03-01T17:17:50;5.70;99.90
25640;DHT22;13497;48.322;16.204;2023-03-01T17:20:16;5.60;99.90
25640;DHT22;13497;48.322;16.204;2023-03-01T17:22:42;5.60;99.90
25640;DHT22;13497;48.322;16.204;2023-03-01T17:25:11;5.50;99.90
25640;DHT22;13497;48.322;16.204;2023-03-01T17:27:38;5.40;99.90
25640;DHT22;13497;48.322;16.204;2023-03-01T17:30:05;5.30;99.90
25640;DHT22;13497;48.322;16.204;2023-03-01T17:32:31;5.20;99.90
25640;DHT22;13497;48.322;16.204;2023-03-01T17:34:57;5.10;99.90
25640;DHT22;13497;48.322;16.204;2023-03-01T17:37:22;5.00;99.90